Time;durP1;ratioP1;P1;durP2;ratioP2;P2;SDS_P1;SDS_P2;PMS_P1;PMS_P2;Temp;Humidity;BMP_temperature;BMP_pressure;BME280_temperature;BME280_humidity;BME280_pressure;Samples;Min_cycle;Max_cycle;Signal;HPM_P1;HPM_P2
2022/10/06 00:01:14;;;;;;;0.50;0.50;;;16.20;94.70;;;;;;5055096;28;20090;-69
2022/10/06 00:03:41;;;;;;;1.70;0.93;;;16.20;94.70;;;;;;5054227;28;20029;-69
2022/10/06 00:06:09;;;;;;;4.28;0.77;;;16.10;94.70;;;;;;5054971;28;20032;-69
2022/10/06 00:08:36;;;;;;;4.53;0.80;;;16.10;94.80;;;;;;5055105;28;20028;-69
2022/10/06 00:11:02;;;;;;;2.08;0.90;;;16.00;94.80;;;;;;5054335;28;20064;-69
2022/10/06 00:13:28;;;;;;;0.50;0.50;;;16.00;94.80;;;;;;5055548;28;20029;-69
2022/10/06 00:15:54;;;;;;;2.75;0.80;;;15.90;94.80;;;;;;5054717;28;20606;-69
2022/10/06 00:18:20;;;;;;;3.75;1.02;;;15.90;94.80;;;;;;5054551;28;20088;-69
2022/10/06 00:20:56;;;;;;;5.50;0.88;;;15.90;94.80;;;;;;5054627;28;20041;-69
2022/10/06 00:23:22;;;;;;;0.63;0.30;;;15.80;94.70;;;;;;5054142;28;20090;-69
2022/10/06 00:25:48;;;;;;;2.88;0.82;;;15.80;94.60;;;;;;5054509;28;20133;-69
2022/10/06 00:28:15;;;;;;;7.93;1.30;;;15.80;94.60;;;;;;5055257;28;20056;-69
2022/10/06 00:30:41;;;;;;;2.78;0.95;;;15.90;94.60;;;;;;5053757;28;20021;-69
2022/10/06 00:33:12;;;;;;;1.15;0.68;;;15.80;94.50;;;;;;5054581;28;20029;-69
2022/10/06 00:35:37;;;;;;;3.30;1.00;;;15.80;94.50;;;;;;5054571;28;20036;-69
2022/10/06 00:38:03;;;;;;;1.65;0.82;;;15.80;94.40;;;;;;5053747;28;20033;-69
2022/10/06 00:40:30;;;;;;;4.28;0.77;;;15.80;94.40;;;;;;5054426;28;20037;-69
2022/10/06 00:43:03;;;;;;;6.45;1.55;;;15.70;94.40;;;;;;5054649;28;20033;-69
2022/10/06 00:45:40;;;;;;;2.30;0.63;;;15.70;94.40;;;;;;5053305;28;20472;-69
2022/10/06 00:48:15;;;;;;;5.72;0.80;;;15.70;94.40;;;;;;5054266;28;20375;-69
2022/10/06 00:50:41;;;;;;;0.95;0.65;;;15.70;94.40;;;;;;5053070;28;20037;-69
2022/10/06 00:53:09;;;;;;;3.40;0.60;;;15.70;94.30;;;;;;5051913;28;20021;-69
2022/10/06 00:55:34;;;;;;;1.85;0.70;;;15.70;94.30;;;;;;5052571;28;20049;-70
2022/10/06 00:58:01;;;;;;;2.70;0.90;;;15.70;94.30;;;;;;5052272;28;20025;-69
2022/10/06 01:00:27;;;;;;;3.10;1.20;;;15.70;94.10;;;;;;5053108;28;20043;-69
2022/10/06 01:03:17;;;;;;;1.55;0.40;;;15.70;94.10;;;;;;5052753;28;20083;-69
2022/10/06 01:05:47;;;;;;;6.43;0.77;;;15.70;94.10;;;;;;5053006;28;20049;-69
2022/10/06 01:08:14;;;;;;;4.82;0.85;;;15.60;94.10;;;;;;5053919;28;20057;-69
2022/10/06 01:10:41;;;;;;;8.93;1.05;;;15.70;94.10;;;;;;5052524;28;20039;-69
2022/10/06 01:13:09;;;;;;;0.45;0.45;;;15.70;94.00;;;;;;5053083;28;20024;-69
2022/10/06 01:15:43;;;;;;;5.95;1.48;;;15.70;94.00;;;;;;5053857;28;20392;-69
2022/10/06 01:18:15;;;;;;;7.32;1.77;;;15.70;93.90;;;;;;5052531;28;20427;-69
2022/10/06 01:20:50;;;;;;;3.85;1.05;;;15.70;93.90;;;;;;5053113;28;20037;-69
2022/10/06 01:23:16;;;;;;;4.53;1.35;;;15.60;93.90;;;;;;5052335;28;20021;-69
2022/10/06 01:25:43;;;;;;;3.80;0.60;;;15.60;93.90;;;;;;5052240;28;20059;-69
2022/10/06 01:28:11;;;;;;;6.20;1.05;;;15.50;94.00;;;;;;5051632;28;20029;-69
2022/10/06 01:30:51;;;;;;;6.30;0.93;;;15.50;94.00;;;;;;5053522;28;20519;-69
2022/10/06 01:33:19;;;;;;;6.28;1.45;;;15.50;94.00;;;;;;5051830;28;20029;-69
2022/10/06 01:35:50;;;;;;;3.03;0.95;;;15.50;94.00;;;;;;5052568;28;20021;-69
2022/10/06 01:38:17;;;;;;;3.35;1.02;;;15.50;94.00;;;;;;5053665;28;20048;-69
2022/10/06 01:40:44;;;;;;;1.02;0.60;;;15.50;94.00;;;;;;5052824;28;20023;-69
2022/10/06 01:43:11;;;;;;;1.85;0.77;;;15.50;93.90;;;;;;5052217;28;20033;-69
2022/10/06 01:45:37;;;;;;;1.88;1.02;;;15.50;94.00;;;;;;5053367;28;20041;-69
2022/10/06 01:48:03;;;;;;;6.55;1.55;;;15.40;94.00;;;;;;5051228;28;20021;-69
2022/10/06 01:50:29;;;;;;;8.00;1.58;;;15.40;94.00;;;;;;5052037;28;20040;-69
2022/10/06 01:52:56;;;;;;;1.85;0.85;;;15.30;94.00;;;;;;5052101;28;20052;-69
2022/10/06 01:55:23;;;;;;;4.75;1.30;;;15.30;93.90;;;;;;5052348;28;20099;-70
2022/10/06 01:57:49;;;;;;;2.53;0.63;;;15.30;93.90;;;;;;5052462;28;20025;-69
2022/10/06 02:00:16;;;;;;;6.53;1.23;;;15.30;93.90;;;;;;5051892;28;20025;-69
2022/10/06 02:02:43;;;;;;;5.07;0.95;;;15.30;93.90;;;;;;5051214;28;20055;-69
2022/10/06 02:05:09;;;;;;;7.13;2.00;;;15.30;93.90;;;;;;5053150;28;20032;-69
2022/10/06 02:07:38;;;;;;;1.30;0.90;;;15.20;93.90;;;;;;5052231;28;20040;-69
2022/10/06 02:10:05;;;;;;;1.17;0.77;;;15.20;93.90;;;;;;5052745;28;20029;-69
2022/10/06 02:12:32;;;;;;;9.80;1.63;;;15.20;93.90;;;;;;5056437;28;20035;-69
2022/10/06 02:14:59;;;;;;;13.93;1.10;;;15.20;93.90;;;;;;5055798;28;20025;-69
2022/10/06 02:17:25;;;;;;;6.18;1.92;;;15.20;93.80;;;;;;5056249;28;20024;-69
2022/10/06 02:19:50;;;;;;;8.30;1.00;;;15.20;93.80;;;;;;5055753;28;20056;-69
2022/10/06 02:22:16;;;;;;;1.02;0.98;;;15.10;93.80;;;;;;5055855;28;20033;-69
2022/10/06 02:24:42;;;;;;;2.67;1.10;;;15.10;93.80;;;;;;5054863;28;20031;-69
2022/10/06 02:27:08;;;;;;;1.65;0.90;;;15.10;93.80;;;;;;5055582;28;20395;-69
2022/10/06 02:29:34;;;;;;;3.30;0.70;;;15.10;93.70;;;;;;5055713;28;20052;-69
2022/10/06 02:32:00;;;;;;;2.40;0.88;;;15.10;93.70;;;;;;5055689;28;20040;-69
2022/10/06 02:34:26;;;;;;;9.68;1.77;;;15.10;93.70;;;;;;5055570;28;20021;-69
2022/10/06 02:36:53;;;;;;;4.60;0.88;;;15.00;93.70;;;;;;5054724;28;20086;-69
2022/10/06 02:39:19;;;;;;;1.85;0.73;;;15.00;93.70;;;;;;5055497;28;20036;-69
2022/10/06 02:41:45;;;;;;;7.68;1.88;;;15.00;93.60;;;;;;5055292;28;20063;-69
2022/10/06 02:44:11;;;;;;;7.68;1.67;;;15.00;93.60;;;;;;5054561;28;20502;-69
2022/10/06 02:46:38;;;;;;;1.13;0.82;;;15.00;93.60;;;;;;5055214;28;20044;-69
2022/10/06 02:49:04;;;;;;;2.00;0.82;;;14.90;93.50;;;;;;5055154;28;20044;-69
2022/10/06 02:51:31;;;;;;;1.95;1.02;;;15.00;93.50;;;;;;5055572;28;20486;-69
2022/10/06 02:53:58;;;;;;;6.05;1.48;;;14.90;93.40;;;;;;5055195;28;20025;-69
2022/10/06 02:56:25;;;;;;;7.35;1.42;;;14.90;93.30;;;;;;5054851;28;20053;-69
2022/10/06 02:58:52;;;;;;;1.33;0.60;;;14.80;93.30;;;;;;5054355;28;20029;-69
2022/10/06 03:01:26;;;;;;;6.88;1.13;;;14.80;93.30;;;;;;5055246;28;20025;-69
2022/10/06 03:03:54;;;;;;;3.13;1.58;;;14.70;93.30;;;;;;5054965;28;20025;-69
2022/10/06 03:06:26;;;;;;;6.43;1.20;;;14.70;93.30;;;;;;5055189;28;20032;-69
2022/10/06 03:09:01;;;;;;;6.60;1.65;;;14.70;93.40;;;;;;5054990;28;20072;-69
2022/10/06 03:11:31;;;;;;;6.80;1.50;;;14.60;93.50;;;;;;5054786;28;20040;-69
2022/10/06 03:13:57;;;;;;;5.63;1.20;;;14.50;93.60;;;;;;5054083;28;20021;-69
2022/10/06 03:16:25;;;;;;;2.63;0.88;;;14.50;93.70;;;;;;5054753;28;20434;-69
2022/10/06 03:18:53;;;;;;;2.08;1.38;;;14.60;93.80;;;;;;5054118;28;20029;-69
2022/10/06 03:21:21;;;;;;;3.20;0.68;;;14.50;93.80;;;;;;5054640;28;20029;-69
2022/10/06 03:23:49;;;;;;;6.88;1.80;;;14.50;93.80;;;;;;5055990;28;20456;-69
2022/10/06 03:26:16;;;;;;;6.68;1.27;;;14.50;93.80;;;;;;5053785;28;20135;-69
2022/10/06 03:28:43;;;;;;;5.85;1.60;;;14.50;93.80;;;;;;5054565;28;20025;-69
2022/10/06 03:31:11;;;;;;;4.28;1.50;;;14.50;93.70;;;;;;5054489;28;20032;-69
2022/10/06 03:33:36;;;;;;;5.72;1.60;;;14.50;93.70;;;;;;5053703;28;20029;-69
2022/10/06 03:36:18;;;;;;;3.25;1.20;;;14.50;93.70;;;;;;5054261;28;20041;-69
2022/10/06 03:38:44;;;;;;;7.63;1.50;;;14.40;93.70;;;;;;5055466;28;20115;-69
2022/10/06 03:41:16;;;;;;;4.68;1.55;;;14.50;93.70;;;;;;5053441;28;20075;-69
2022/10/06 03:43:43;;;;;;;19.50;2.13;;;14.40;93.60;;;;;;5054187;28;20029;-69
2022/10/06 03:46:11;;;;;;;1.33;1.02;;;14.40;93.60;;;;;;5055436;28;20392;-69
2022/10/06 03:48:37;;;;;;;1.75;1.17;;;14.40;93.50;;;;;;5053345;28;20035;-69
2022/10/06 03:51:27;;;;;;;3.60;1.08;;;14.40;93.50;;;;;;5055414;28;20075;-69
2022/10/06 03:53:54;;;;;;;6.38;1.13;;;14.40;93.50;;;;;;5054216;28;20391;-69
2022/10/06 03:56:25;;;;;;;3.05;1.17;;;14.40;93.50;;;;;;5054172;28;20059;-69
2022/10/06 03:58:53;;;;;;;8.13;1.50;;;14.40;93.50;;;;;;5054478;28;20024;-69
2022/10/06 04:01:22;;;;;;;3.25;1.38;;;14.40;93.40;;;;;;5054906;28;20110;-69
2022/10/06 04:03:48;;;;;;;2.97;0.73;;;14.40;93.40;;;;;;5053699;28;20551;-69
2022/10/06 04:06:17;;;;;;;5.53;0.82;;;14.40;93.40;;;;;;5053778;28;20124;-69
2022/10/06 04:08:45;;;;;;;2.03;1.02;;;14.40;93.40;;;;;;5053027;28;20021;-69
2022/10/06 04:11:21;;;;;;;7.88;1.73;;;14.40;93.40;;;;;;5053631;28;20551;-69
2022/10/06 04:13:50;;;;;;;1.77;0.55;;;14.40;93.40;;;;;;5055256;28;20025;-69
2022/10/06 04:16:25;;;;;;;9.82;1.52;;;14.30;93.40;;;;;;5052928;28;20025;-69
2022/10/06 04:18:53;;;;;;;3.67;0.90;;;14.30;93.30;;;;;;5053467;28;20468;-69
2022/10/06 04:21:19;;;;;;;5.00;1.17;;;14.30;93.30;;;;;;5054628;28;20430;-69
2022/10/06 04:23:45;;;;;;;3.40;1.20;;;14.30;93.30;;;;;;5053850;28;20039;-69
2022/10/06 04:26:17;;;;;;;7.00;1.77;;;14.30;93.30;;;;;;5053120;28;20037;-69
2022/10/06 04:28:47;;;;;;;6.65;1.77;;;14.30;93.40;;;;;;5053700;28;20029;-69
2022/10/06 04:31:21;;;;;;;4.30;1.42;;;14.20;93.40;;;;;;5052543;28;20033;-69
2022/10/06 04:33:53;;;;;;;4.38;1.63;;;14.20;93.50;;;;;;5052693;28;20433;-69
2022/10/06 04:36:32;;;;;;;1.05;0.70;;;14.20;93.60;;;;;;5052446;28;20476;-69
2022/10/06 04:39:00;;;;;;;2.30;0.73;;;14.20;93.70;;;;;;5053180;28;20072;-69
2022/10/06 04:41:30;;;;;;;3.20;0.90;;;14.10;93.70;;;;;;5053089;28;20025;-69
2022/10/06 04:43:57;;;;;;;3.35;1.15;;;14.10;93.70;;;;;;5052150;28;20032;-69
2022/10/06 04:46:25;;;;;;;6.43;0.73;;;14.10;93.70;;;;;;5053013;28;20430;-69
2022/10/06 04:48:52;;;;;;;2.63;1.13;;;14.10;93.80;;;;;;5052882;28;20021;-69
2022/10/06 04:51:20;;;;;;;3.40;0.82;;;14.10;93.70;;;;;;5052078;28;20029;-69
2022/10/06 04:53:47;;;;;;;7.60;0.93;;;14.10;93.70;;;;;;5054026;28;20430;-69
2022/10/06 04:56:16;;;;;;;6.20;1.95;;;14.10;93.70;;;;;;5052525;28;20056;-69
2022/10/06 04:58:45;;;;;;;3.30;1.10;;;14.10;93.70;;;;;;5051918;28;20031;-69
2022/10/06 05:01:16;;;;;;;4.65;1.02;;;14.10;93.70;;;;;;5053973;28;20039;-69
2022/10/06 05:03:44;;;;;;;2.58;1.40;;;14.10;93.70;;;;;;5052634;28;20487;-69
2022/10/06 05:06:13;;;;;;;5.90;1.05;;;14.10;93.60;;;;;;5051826;28;20045;-69
2022/10/06 05:08:40;;;;;;;4.72;0.88;;;14.00;93.70;;;;;;5052559;28;20029;-69
2022/10/06 05:11:09;;;;;;;1.52;1.17;;;14.10;93.70;;;;;;5052554;28;20063;-69
2022/10/06 05:13:36;;;;;;;2.63;0.95;;;14.00;93.70;;;;;;5051560;28;20029;-69
2022/10/06 05:16:04;;;;;;;2.45;1.02;;;14.00;93.70;;;;;;5052370;28;20024;-69
2022/10/06 05:18:33;;;;;;;5.18;0.98;;;14.00;93.70;;;;;;5051738;28;20078;-69
2022/10/06 05:21:09;;;;;;;4.45;1.23;;;14.00;93.60;;;;;;5052341;28;20040;-69
2022/10/06 05:23:38;;;;;;;2.78;1.63;;;14.00;93.60;;;;;;5052488;28;20142;-69
2022/10/06 05:26:05;;;;;;;1.05;0.75;;;14.00;93.60;;;;;;5052850;28;20045;-69
2022/10/06 05:28:31;;;;;;;4.90;0.95;;;14.00;93.60;;;;;;5053478;28;20518;-69
2022/10/06 05:31:04;;;;;;;2.45;0.70;;;14.00;93.60;;;;;;5052546;28;20082;-69
2022/10/06 05:33:32;;;;;;;2.28;1.20;;;14.00;93.60;;;;;;5051447;28;20033;-69
2022/10/06 05:36:04;;;;;;;3.10;1.20;;;14.00;93.60;;;;;;5053437;28;20468;-69
2022/10/06 05:38:31;;;;;;;8.27;1.02;;;13.90;93.50;;;;;;5052178;28;20025;-69
2022/10/06 05:41:15;;;;;;;9.68;1.13;;;13.90;93.50;;;;;;5051443;28;20021;-69
2022/10/06 05:43:43;;;;;;;2.30;0.60;;;13.90;93.50;;;;;;5052429;28;20033;-69
2022/10/06 05:46:16;;;;;;;10.35;1.95;;;13.90;93.50;;;;;;5051988;28;20036;-69
2022/10/06 05:48:47;;;;;;;3.17;1.08;;;13.90;93.50;;;;;;5051414;28;20029;-69
2022/10/06 05:51:16;;;;;;;4.45;1.15;;;13.90;93.40;;;;;;5052188;28;20028;-69
2022/10/06 05:53:43;;;;;;;3.22;0.93;;;13.90;93.70;;;;;;5053247;28;20475;-69
2022/10/06 05:56:11;;;;;;;6.72;1.40;;;13.90;93.40;;;;;;5052544;28;20060;-69
2022/10/06 05:58:40;;;;;;;3.00;0.77;;;13.90;93.40;;;;;;5053047;28;20495;-69
2022/10/06 06:01:07;;;;;;;4.30;1.08;;;13.90;93.40;;;;;;5051151;28;20586;-69
2022/10/06 06:03:33;;;;;;;2.53;1.00;;;13.90;93.40;;;;;;5053206;28;20056;-69
2022/10/06 06:05:59;;;;;;;5.18;1.40;;;13.90;93.40;;;;;;5051962;28;20068;-69
2022/10/06 06:08:25;;;;;;;4.55;1.17;;;13.80;93.40;;;;;;5053656;28;20025;-69
2022/10/06 06:10:50;;;;;;;2.95;0.80;;;13.80;93.40;;;;;;5053942;28;20483;-69
2022/10/06 06:13:22;;;;;;;3.65;0.88;;;13.90;93.50;;;;;;5051836;28;20021;-69
2022/10/06 06:16:03;;;;;;;1.90;1.17;;;13.90;93.40;;;;;;5052413;28;20025;-69
2022/10/06 06:18:31;;;;;;;9.73;1.52;;;13.90;93.40;;;;;;5051800;28;20439;-69
2022/10/06 06:20:59;;;;;;;3.88;0.82;;;13.80;93.40;;;;;;5051828;28;20033;-69
2022/10/06 06:23:33;;;;;;;1.27;0.90;;;13.90;93.40;;;;;;5052484;28;20527;-69
2022/10/06 06:26:01;;;;;;;6.20;1.27;;;13.80;93.50;;;;;;5051657;28;20047;-69
2022/10/06 06:28:28;;;;;;;1.52;1.42;;;13.80;93.50;;;;;;5053459;28;20041;-69
2022/10/06 06:31:08;;;;;;;8.73;1.63;;;13.80;93.50;;;;;;5052844;28;20504;-69
2022/10/06 06:33:38;;;;;;;3.85;0.68;;;13.80;93.50;;;;;;5053106;28;20029;-69
2022/10/06 06:36:26;;;;;;;1.02;0.80;;;13.80;93.60;;;;;;5052324;28;20367;-69
2022/10/06 06:38:54;;;;;;;5.50;1.02;;;13.80;93.60;;;;;;5051604;28;20025;-69
2022/10/06 06:41:23;;;;;;;4.97;1.48;;;13.80;93.70;;;;;;5051484;28;20464;-69
2022/10/06 06:43:53;;;;;;;14.15;2.72;;;13.80;93.70;;;;;;5051006;28;20618;-69
2022/10/06 06:46:33;;;;;;;8.35;1.60;;;13.80;93.80;;;;;;5051540;28;20048;-69
2022/10/06 06:49:04;;;;;;;7.40;1.00;;;13.80;93.90;;;;;;5051700;28;20029;-69
2022/10/06 06:51:34;;;;;;;6.13;1.15;;;13.70;94.00;;;;;;5050593;28;20033;-69
2022/10/06 06:54:01;;;;;;;3.28;1.13;;;13.80;94.00;;;;;;5051681;28;20396;-69
2022/10/06 06:56:33;;;;;;;4.40;1.25;;;13.70;94.00;;;;;;5053081;28;20045;-69
2022/10/06 06:59:05;;;;;;;3.83;1.20;;;13.80;94.10;;;;;;5054460;28;20060;-69
2022/10/06 07:01:31;;;;;;;5.35;1.42;;;13.70;94.20;;;;;;5055170;28;20487;-69
2022/10/06 07:03:57;;;;;;;5.65;1.67;;;13.70;94.20;;;;;;5054124;28;20029;-69
2022/10/06 07:06:27;;;;;;;1.70;0.60;;;13.70;94.30;;;;;;5054794;28;20438;-69
2022/10/06 07:08:53;;;;;;;6.35;1.67;;;13.80;94.50;;;;;;5055432;28;20060;-69
2022/10/06 07:11:31;;;;;;;11.55;1.85;;;13.80;94.60;;;;;;5054030;28;20120;-69
2022/10/06 07:14:04;;;;;;;8.15;1.95;;;13.70;94.70;;;;;;5054917;28;20021;-69
2022/10/06 07:25:05;;;;;;;4.88;1.67;;;13.70;95.30;;;;;;5054661;28;20049;-69
2022/10/06 07:27:35;;;;;;;3.58;1.45;;;13.60;95.40;;;;;;5054519;28;20037;-69
2022/10/06 07:30:04;;;;;;;11.60;1.95;;;13.70;95.50;;;;;;5054481;28;20435;-69
2022/10/06 07:32:31;;;;;;;6.63;1.48;;;13.60;95.60;;;;;;5053694;28;20036;-69
2022/10/06 07:34:58;;;;;;;2.75;0.98;;;13.70;95.60;;;;;;5054440;28;20031;-69
2022/10/06 07:37:24;;;;;;;3.45;1.95;;;13.70;95.80;;;;;;5054203;28;20375;-69
2022/10/06 07:39:51;;;;;;;5.28;1.63;;;13.70;95.80;;;;;;5053874;28;20071;-69
2022/10/06 07:42:17;;;;;;;6.00;1.30;;;13.70;95.90;;;;;;5054340;28;20033;-69
2022/10/06 07:47:28;;;;;;;11.02;2.03;;;13.70;96.00;;;;;;5054862;28;20113;-69
2022/10/06 07:49:57;;;;;;;8.45;1.65;;;13.70;96.10;;;;;;5054047;28;20060;-69
2022/10/06 07:52:24;;;;;;;2.63;1.38;;;13.70;96.30;;;;;;5054019;28;20036;-69
2022/10/06 07:54:50;;;;;;;5.40;1.60;;;13.70;96.40;;;;;;5053026;28;20032;-69
2022/10/06 07:57:29;;;;;;;3.97;1.40;;;13.70;96.40;;;;;;5055559;28;20486;-69
2022/10/06 07:59:54;;;;;;;1.73;1.08;;;13.70;96.50;;;;;;5055291;28;20036;-69
2022/10/06 08:02:22;;;;;;;7.25;1.38;;;13.80;96.60;;;;;;5054293;28;20426;-69
2022/10/06 08:04:47;;;;;;;10.68;2.28;;;13.80;96.70;;;;;;5055333;28;20060;-69
2022/10/06 08:07:13;;;;;;;4.90;1.40;;;13.80;96.70;;;;;;5053449;28;20103;-69
2022/10/06 08:09:38;;;;;;;7.70;1.58;;;13.90;96.80;;;;;;5055064;28;20155;-69
2022/10/06 08:12:31;;;;;;;6.18;1.55;;;13.90;96.70;;;;;;5055109;28;20357;-68
2022/10/06 08:14:49;;;;;;;6.25;1.35;;;13.90;96.80;;;;;;5053907;28;20499;-69
2022/10/06 08:17:15;;;;;;;8.32;1.80;;;13.90;96.80;;;;;;5054939;28;20029;-69
2022/10/06 08:19:41;;;;;;;8.68;2.03;;;13.90;96.80;;;;;;5054907;28;20029;-68
2022/10/06 08:22:06;;;;;;;8.73;2.10;;;14.00;96.90;;;;;;5054099;28;20039;-70
2022/10/06 08:24:32;;;;;;;7.47;1.52;;;14.00;97.00;;;;;;5054756;28;20028;-69
2022/10/06 08:26:58;;;;;;;10.30;1.92;;;14.00;97.00;;;;;;5054455;28;20480;-69
2022/10/06 08:29:23;;;;;;;4.72;1.60;;;14.10;97.10;;;;;;5053945;28;20025;-69
2022/10/06 08:31:49;;;;;;;5.15;1.42;;;14.10;97.10;;;;;;5054636;28;20061;-69
2022/10/06 08:34:14;;;;;;;8.85;2.05;;;14.10;97.10;;;;;;5054658;28;20435;-69
2022/10/06 08:36:42;;;;;;;5.88;1.27;;;14.10;97.10;;;;;;5053932;28;20357;-69
2022/10/06 08:39:08;;;;;;;9.05;1.67;;;14.10;97.20;;;;;;5054573;28;20056;-69
2022/10/06 08:41:38;;;;;;;5.32;1.73;;;14.20;97.30;;;;;;5054437;28;20377;-68
2022/10/06 08:44:13;;;;;;;8.20;1.95;;;14.20;97.30;;;;;;5053437;28;20021;-68
2022/10/06 08:46:55;;;;;;;7.55;1.90;;;14.20;97.40;;;;;;5054154;28;20053;-68
2022/10/06 08:49:24;;;;;;;4.95;1.65;;;14.20;97.40;;;;;;5054227;28;20039;-66
2022/10/06 08:52:08;;;;;;;13.65;1.48;;;14.20;97.40;;;;;;5054116;28;20075;-65
2022/10/06 08:55:02;;;;;;;8.93;1.85;;;14.30;97.40;;;;;;5054059;28;20037;-65
2022/10/06 08:57:40;;;;;;;16.95;2.40;;;14.30;97.40;;;;;;5053405;28;20041;-66
2022/10/06 09:00:13;;;;;;;9.48;1.90;;;14.30;97.40;;;;;;5054085;28;20529;-71
2022/10/06 09:02:44;;;;;;;4.32;1.75;;;14.30;97.40;;;;;;5053871;28;20488;-66
2022/10/06 09:05:25;;;;;;;4.82;2.40;;;14.30;97.40;;;;;;5053241;28;20029;-66
2022/10/06 09:08:18;;;;;;;7.32;1.70;;;14.30;97.40;;;;;;5054148;28;20430;-66
2022/10/06 09:11:25;;;;;;;13.30;1.92;;;14.40;97.40;;;;;;5053077;28;20086;-66
2022/10/06 09:14:20;;;;;;;6.45;1.92;;;14.40;97.30;;;;;;5031879;28;20207;-66
2022/10/06 09:16:50;;;;;;;5.10;1.60;;;14.50;97.30;;;;;;5053698;28;20047;-65
2022/10/06 09:19:30;;;;;;;6.47;1.10;;;14.50;97.20;;;;;;5052788;28;20040;-66
2022/10/06 09:21:58;;;;;;;8.48;1.48;;;14.50;97.10;;;;;;5055504;28;20115;-66
2022/10/06 09:24:36;;;;;;;11.18;2.10;;;14.60;97.00;;;;;;5053644;28;20047;-67
2022/10/06 09:27:22;;;;;;;8.82;2.03;;;14.60;96.90;;;;;;5053814;28;20488;-66
2022/10/06 09:29:48;;;;;;;8.50;1.80;;;14.70;96.80;;;;;;5033433;28;20057;-65
2022/10/06 09:32:19;;;;;;;7.78;1.63;;;14.70;96.60;;;;;;5033274;28;20029;-67
2022/10/06 09:34:48;;;;;;;7.25;1.63;;;14.70;96.40;;;;;;5035441;28;20109;-67
2022/10/06 09:37:16;;;;;;;4.53;1.67;;;14.80;96.60;;;;;;5033766;28;20033;-67
2022/10/06 09:39:46;;;;;;;8.90;1.58;;;14.80;96.20;;;;;;5033248;28;20033;-67
2022/10/06 09:42:31;;;;;;;11.20;1.88;;;14.80;96.20;;;;;;5034299;28;20029;-65
2022/10/06 09:45:00;;;;;;;10.68;1.92;;;14.80;96.20;;;;;;5033901;28;20120;-68
2022/10/06 09:47:38;;;;;;;3.00;1.10;;;14.80;96.00;;;;;;5033285;28;20041;-68
2022/10/06 09:50:14;;;;;;;11.45;2.40;;;14.80;95.90;;;;;;5033673;28;20031;-68
2022/10/06 09:52:42;;;;;;;7.50;1.85;;;14.80;95.80;;;;;;5032683;28;20510;-66
2022/10/06 09:55:11;;;;;;;13.35;1.55;;;14.80;95.70;;;;;;5033336;28;20021;-68
2022/10/06 09:57:37;;;;;;;4.88;1.42;;;14.90;95.60;;;;;;5033231;28;20041;-70
2022/10/06 10:00:25;;;;;;;10.00;1.48;;;14.90;95.40;;;;;;5033431;28;20363;-68
2022/10/06 10:02:57;;;;;;;8.10;1.60;;;14.90;95.30;;;;;;5034896;28;20034;-68
2022/10/06 10:05:23;;;;;;;6.70;1.55;;;15.00;95.30;;;;;;5034099;28;20084;-68
2022/10/06 10:08:26;;;;;;;7.15;2.00;;;15.10;95.40;;;;;;5033297;28;20045;-68
2022/10/06 10:12:23;;;;;;;7.68;1.70;;;15.10;95.30;;;;;;5032940;28;20048;-68
2022/10/06 10:13:54;;;;;;;5.70;1.60;;;15.10;95.10;;;;;;5033316;28;20129;-68
2022/10/06 10:16:29;;;;;;;4.97;1.90;;;15.10;94.80;;;;;;5033419;28;20037;-68
2022/10/06 10:18:56;;;;;;;6.32;1.80;;;15.10;94.60;;;;;;5033615;28;20045;-68
2022/10/06 10:21:34;;;;;;;7.53;1.52;;;15.10;94.60;;;;;;5032804;28;20033;-68
2022/10/06 10:24:05;;;;;;;5.57;1.48;;;15.20;94.60;;;;;;5033431;28;20084;-68
2022/10/06 10:26:45;;;;;;;9.45;1.85;;;15.30;94.70;;;;;;5033034;28;20547;-68
2022/10/06 10:29:36;;;;;;;7.28;1.45;;;15.30;94.70;;;;;;5032636;28;20049;-68
2022/10/06 10:32:39;;;;;;;6.90;1.42;;;15.40;94.60;;;;;;5036332;28;20442;-68
2022/10/06 10:35:36;;;;;;;6.55;1.83;;;15.40;94.50;;;;;;5036798;28;20037;-68
2022/10/06 10:38:11;;;;;;;2.63;0.70;;;15.50;94.40;;;;;;5037148;28;20396;-68
2022/10/06 10:40:46;;;;;;;3.20;0.90;;;15.60;94.40;;;;;;5036825;28;20037;-68
2022/10/06 10:43:30;;;;;;;4.30;1.25;;;15.60;94.40;;;;;;5035972;28;20072;-68
2022/10/06 10:46:15;;;;;;;6.15;1.58;;;15.70;94.50;;;;;;5037051;28;20526;-68
2022/10/06 10:49:00;;;;;;;4.97;1.63;;;15.60;94.50;;;;;;5036883;28;20038;-68
2022/10/06 10:51:46;;;;;;;9.48;1.48;;;15.70;94.60;;;;;;5037050;28;20040;-68
2022/10/06 10:54:18;;;;;;;9.30;1.50;;;15.80;94.30;;;;;;5037426;28;20036;-68
2022/10/06 10:56:47;;;;;;;3.88;1.60;;;15.80;93.90;;;;;;5037774;28;20056;-68
2022/10/06 10:59:21;;;;;;;6.15;1.20;;;15.80;93.60;;;;;;5036852;28;20475;-68
2022/10/06 11:02:17;;;;;;;9.80;1.65;;;15.90;93.60;;;;;;5036607;28;20049;-68
2022/10/06 11:04:46;;;;;;;3.55;1.35;;;15.90;93.40;;;;;;5038302;28;20020;-67
2022/10/06 11:07:20;;;;;;;3.65;1.27;;;15.90;93.50;;;;;;5036093;28;20037;-68
2022/10/06 11:09:56;;;;;;;5.93;1.50;;;15.90;93.50;;;;;;5036345;28;20044;-68
2022/10/06 11:12:45;;;;;;;1.55;0.73;;;16.00;93.60;;;;;;5035564;28;20036;-68
2022/10/06 11:15:31;;;;;;;3.60;1.42;;;16.10;93.60;;;;;;5036396;28;20036;-68
2022/10/06 11:18:12;;;;;;;4.93;1.65;;;16.10;93.30;;;;;;5035491;28;20025;-68
2022/10/06 11:20:50;;;;;;;8.68;1.63;;;16.20;93.20;;;;;;5036343;28;20030;-68
2022/10/06 11:23:31;;;;;;;3.05;1.10;;;16.20;93.00;;;;;;5036166;28;20384;-68
2022/10/06 11:26:18;;;;;;;5.93;1.23;;;16.30;92.80;;;;;;5035233;28;20045;-68
2022/10/06 11:28:54;;;;;;;5.75;1.45;;;16.30;92.50;;;;;;5035772;28;20472;-68
2022/10/06 11:31:34;;;;;;;6.15;1.20;;;16.30;92.30;;;;;;5035274;28;20032;-68
2022/10/06 11:34:03;;;;;;;5.78;1.23;;;16.40;92.40;;;;;;5035949;28;20512;-68
2022/10/06 11:37:16;;;;;;;2.72;1.08;;;16.40;92.60;;;;;;5035893;28;20037;-68
2022/10/06 11:40:02;;;;;;;5.18;1.08;;;16.50;92.30;;;;;;5035142;28;20041;-68
2022/10/06 11:43:02;;;;;;;4.32;1.20;;;16.50;91.70;;;;;;5035545;28;20104;-68
2022/10/06 11:45:39;;;;;;;6.20;1.52;;;16.50;91.30;;;;;;5030579;28;20037;-68
2022/10/06 11:48:10;;;;;;;6.15;1.75;;;16.60;91.40;;;;;;5035718;28;20034;-68
2022/10/06 11:50:37;;;;;;;4.28;0.80;;;16.60;90.80;;;;;;5035473;28;20025;-68
2022/10/06 11:53:04;;;;;;;4.18;1.10;;;16.60;90.70;;;;;;5034771;28;20029;-68
2022/10/06 11:55:30;;;;;;;5.30;1.08;;;16.70;90.70;;;;;;5035090;28;20137;-68
2022/10/06 11:58:08;;;;;;;3.25;1.10;;;16.70;90.60;;;;;;5035501;28;20069;-68
2022/10/06 12:00:34;;;;;;;5.38;1.50;;;16.80;90.30;;;;;;5034687;28;20033;-68
2022/10/06 12:03:32;;;;;;;6.63;1.35;;;16.80;90.30;;;;;;5035328;28;20079;-68
2022/10/06 12:05:57;;;;;;;5.97;1.10;;;16.90;90.30;;;;;;5034939;28;20455;-68
2022/10/06 12:08:38;;;;;;;1.33;0.70;;;16.90;90.50;;;;;;5034615;28;20033;-68
2022/10/06 12:11:37;;;;;;;3.72;1.55;;;17.00;90.20;;;;;;5035003;28;20120;-68
2022/10/06 12:14:07;;;;;;;3.40;1.10;;;17.00;89.70;;;;;;5034366;28;20033;-68
2022/10/06 12:16:41;;;;;;;5.55;1.20;;;17.10;89.60;;;;;;5034923;28;20044;-68
2022/10/06 12:19:17;;;;;;;;;;;17.10;89.60;;;;;;5035527;28;20038;-68
2022/10/06 12:21:47;;;;;;;4.68;1.58;;;17.20;90.00;;;;;;5034110;28;19924;-68
2022/10/06 12:24:18;;;;;;;4.07;1.20;;;17.30;89.90;;;;;;5034920;28;20022;-68
2022/10/06 12:27:22;;;;;;;4.35;1.48;;;17.30;89.80;;;;;;5034655;28;20403;-68
2022/10/06 12:30:26;;;;;;;2.93;0.93;;;17.40;89.80;;;;;;5034264;28;20401;-68
2022/10/06 12:32:53;;;;;;;8.07;1.00;;;17.50;89.60;;;;;;5034672;28;20484;-68
2022/10/06 12:35:23;;;;;;;3.17;1.00;;;17.60;89.90;;;;;;5033967;28;20034;-68
2022/10/06 12:37:51;;;;;;;5.18;1.20;;;17.60;88.80;;;;;;5034777;28;20373;-68
2022/10/06 12:40:43;;;;;;;2.95;0.80;;;17.70;88.80;;;;;;5034792;28;20029;-68
2022/10/06 12:43:11;;;;;;;3.47;0.82;;;17.70;87.80;;;;;;5033682;28;20033;-68
2022/10/06 12:45:41;;;;;;;2.83;1.13;;;17.70;87.50;;;;;;5034273;28;20484;-68
2022/10/06 12:48:24;;;;;;;3.33;1.67;;;17.80;87.50;;;;;;5034261;28;20035;-68
2022/10/06 12:51:01;;;;;;;3.78;1.10;;;17.80;86.30;;;;;;5033535;28;20376;-68
2022/10/06 12:53:33;;;;;;;3.13;1.00;;;17.90;86.40;;;;;;5033550;28;20033;-68
2022/10/06 12:56:07;;;;;;;9.85;1.55;;;17.80;85.10;;;;;;5033304;28;20049;-68
2022/10/06 12:58:33;;;;;;;3.92;0.60;;;17.90;84.50;;;;;;5034118;28;20489;-68
2022/10/06 13:01:02;;;;;;;3.88;1.25;;;17.90;84.10;;;;;;5034387;28;20030;-68
2022/10/06 13:03:29;;;;;;;6.55;1.95;;;17.90;84.60;;;;;;5033323;28;20033;-68
2022/10/06 13:06:03;;;;;;;5.85;1.40;;;18.00;84.10;;;;;;5034264;28;20047;-68
2022/10/06 13:08:34;;;;;;;1.17;0.63;;;18.00;84.20;;;;;;5033796;28;20036;-70
2022/10/06 13:11:16;;;;;;;3.03;1.40;;;18.10;84.90;;;;;;5039226;28;20016;-67
2022/10/06 13:13:47;;;;;;;3.65;1.02;;;18.10;85.40;;;;;;5068515;28;20025;-67
2022/10/06 13:16:14;;;;;;;3.83;1.23;;;18.20;84.70;;;;;;5073796;28;20050;-68
2022/10/06 13:18:40;;;;;;;6.78;1.08;;;18.20;84.20;;;;;;5072975;28;20028;-66
2022/10/06 13:21:13;;;;;;;3.90;1.17;;;18.30;84.90;;;;;;5073579;28;20111;-68